sensor_id;sensor_type;location;lat;lon;timestamp;P1;durP1;ratioP1;P2;durP2;ratioP2
14776;SDS011;7480;43.124;25.686;2022-10-16T00:50:26;5.17;;;3.50;;
14776;SDS011;7480;43.124;25.686;2022-10-16T00:52:55;5.10;;;4.43;;
14776;SDS011;7480;43.124;25.686;2022-10-16T00:55:22;5.83;;;4.13;;
14776;SDS011;7480;43.124;25.686;2022-10-16T00:57:49;8.30;;;3.67;;
14776;SDS011;7480;43.124;25.686;2022-10-16T01:00:18;6.07;;;4.20;;
14776;SDS011;7480;43.124;25.686;2022-10-16T01:02:57;4.00;;;3.57;;
14776;SDS011;7480;43.124;25.686;2022-10-16T01:05:37;6.00;;;4.03;;
14776;SDS011;7480;43.124;25.686;2022-10-16T01:08:16;8.33;;;5.00;;
14776;SDS011;7480;43.124;25.686;2022-10-16T01:10:52;11.00;;;5.37;;
14776;SDS011;7480;43.124;25.686;2022-10-16T01:16:05;7.47;;;4.50;;
14776;SDS011;7480;43.124;25.686;2022-10-16T01:18:37;7.23;;;4.70;;
14776;SDS011;7480;43.124;25.686;2022-10-16T01:21:08;6.30;;;3.60;;
14776;SDS011;7480;43.124;25.686;2022-10-16T01:23:47;5.40;;;4.30;;
14776;SDS011;7480;43.124;25.686;2022-10-16T01:32:00;6.73;;;4.17;;
14776;SDS011;7480;43.124;25.686;2022-10-16T02:11:28;10.67;;;5.53;;
14776;SDS011;7480;43.124;25.686;2022-10-16T02:13:58;17.20;;;7.60;;
14776;SDS011;7480;43.124;25.686;2022-10-16T02:16:35;12.23;;;8.47;;
14776;SDS011;7480;43.124;25.686;2022-10-16T02:19:07;13.53;;;8.10;;
14776;SDS011;7480;43.124;25.686;2022-10-16T02:21:44;16.50;;;9.03;;
14776;SDS011;7480;43.124;25.686;2022-10-16T02:30:14;13.27;;;7.20;;
14776;SDS011;7480;43.124;25.686;2022-10-16T02:32:46;10.53;;;7.33;;
14776;SDS011;7480;43.124;25.686;2022-10-16T02:35:15;11.70;;;7.37;;
14776;SDS011;7480;43.124;25.686;2022-10-16T02:37:43;13.07;;;8.13;;
14776;SDS011;7480;43.124;25.686;2022-10-16T02:40:11;15.33;;;8.23;;
14776;SDS011;7480;43.124;25.686;2022-10-16T02:42:39;9.27;;;6.53;;
14776;SDS011;7480;43.124;25.686;2022-10-16T02:45:07;13.20;;;8.10;;
14776;SDS011;7480;43.124;25.686;2022-10-16T02:47:35;9.60;;;6.23;;
14776;SDS011;7480;43.124;25.686;2022-10-16T02:50:01;12.90;;;8.40;;
14776;SDS011;7480;43.124;25.686;2022-10-16T02:52:28;13.53;;;7.83;;
14776;SDS011;7480;43.124;25.686;2022-10-16T02:54:55;13.40;;;8.40;;
14776;SDS011;7480;43.124;25.686;2022-10-16T02:57:22;11.27;;;7.37;;
14776;SDS011;7480;43.124;25.686;2022-10-16T02:59:49;11.27;;;6.70;;
14776;SDS011;7480;43.124;25.686;2022-10-16T03:02:15;9.07;;;4.77;;
14776;SDS011;7480;43.124;25.686;2022-10-16T03:04:42;8.87;;;5.90;;
14776;SDS011;7480;43.124;25.686;2022-10-16T03:07:09;10.80;;;6.60;;
14776;SDS011;7480;43.124;25.686;2022-10-16T05:41:29;17.54;;;11.54;;
14776;SDS011;7480;43.124;25.686;2022-10-16T05:43:55;14.13;;;9.27;;
14776;SDS011;7480;43.124;25.686;2022-10-16T05:46:22;13.60;;;8.33;;
14776;SDS011;7480;43.124;25.686;2022-10-16T05:48:51;15.43;;;8.47;;
14776;SDS011;7480;43.124;25.686;2022-10-16T05:51:18;10.13;;;5.93;;
14776;SDS011;7480;43.124;25.686;2022-10-16T05:53:45;13.40;;;6.83;;
14776;SDS011;7480;43.124;25.686;2022-10-16T05:56:12;11.10;;;7.07;;
14776;SDS011;7480;43.124;25.686;2022-10-16T05:58:39;10.27;;;7.23;;
14776;SDS011;7480;43.124;25.686;2022-10-16T06:01:12;11.27;;;7.10;;
14776;SDS011;7480;43.124;25.686;2022-10-16T06:03:40;8.77;;;6.67;;
14776;SDS011;7480;43.124;25.686;2022-10-16T06:06:28;13.97;;;7.57;;
14776;SDS011;7480;43.124;25.686;2022-10-16T06:08:54;15.00;;;8.10;;
14776;SDS011;7480;43.124;25.686;2022-10-16T06:11:25;12.03;;;7.73;;
14776;SDS011;7480;43.124;25.686;2022-10-16T06:13:55;11.70;;;7.73;;
14776;SDS011;7480;43.124;25.686;2022-10-16T06:16:23;13.90;;;8.80;;
14776;SDS011;7480;43.124;25.686;2022-10-16T06:18:51;11.00;;;7.40;;
14776;SDS011;7480;43.124;25.686;2022-10-16T06:21:20;12.23;;;8.30;;
14776;SDS011;7480;43.124;25.686;2022-10-16T06:23:48;9.60;;;7.03;;
14776;SDS011;7480;43.124;25.686;2022-10-16T06:26:15;11.47;;;6.47;;
14776;SDS011;7480;43.124;25.686;2022-10-16T06:28:46;9.10;;;6.67;;
14776;SDS011;7480;43.124;25.686;2022-10-16T06:31:13;12.30;;;7.50;;
14776;SDS011;7480;43.124;25.686;2022-10-16T06:33:41;10.70;;;7.17;;
14776;SDS011;7480;43.124;25.686;2022-10-16T06:36:09;11.77;;;7.40;;
14776;SDS011;7480;43.124;25.686;2022-10-16T06:38:37;8.40;;;6.33;;
14776;SDS011;7480;43.124;25.686;2022-10-16T06:41:04;8.03;;;6.60;;
14776;SDS011;7480;43.124;25.686;2022-10-16T06:43:32;8.87;;;6.67;;
14776;SDS011;7480;43.124;25.686;2022-10-16T07:23:33;10.37;;;7.40;;
14776;SDS011;7480;43.124;25.686;2022-10-16T07:26:00;18.17;;;7.77;;
14776;SDS011;7480;43.124;25.686;2022-10-16T07:28:27;9.27;;;7.17;;
14776;SDS011;7480;43.124;25.686;2022-10-16T07:30:53;7.67;;;6.93;;
14776;SDS011;7480;43.124;25.686;2022-10-16T07:33:21;11.63;;;5.90;;
14776;SDS011;7480;43.124;25.686;2022-10-16T07:35:51;7.60;;;5.77;;
14776;SDS011;7480;43.124;25.686;2022-10-16T07:38:18;9.10;;;7.60;;
14776;SDS011;7480;43.124;25.686;2022-10-16T07:40:45;10.30;;;6.63;;
14776;SDS011;7480;43.124;25.686;2022-10-16T07:43:13;8.90;;;6.67;;
14776;SDS011;7480;43.124;25.686;2022-10-16T07:45:46;14.10;;;8.03;;
14776;SDS011;7480;43.124;25.686;2022-10-16T07:48:14;11.13;;;7.73;;
14776;SDS011;7480;43.124;25.686;2022-10-16T07:50:42;10.97;;;7.10;;
14776;SDS011;7480;43.124;25.686;2022-10-16T07:53:09;12.00;;;7.90;;
14776;SDS011;7480;43.124;25.686;2022-10-16T07:55:36;7.83;;;6.10;;
14776;SDS011;7480;43.124;25.686;2022-10-16T07:58:02;8.20;;;6.57;;
14776;SDS011;7480;43.124;25.686;2022-10-16T08:00:29;13.33;;;5.93;;
14776;SDS011;7480;43.124;25.686;2022-10-16T08:02:59;11.10;;;6.20;;
14776;SDS011;7480;43.124;25.686;2022-10-16T08:05:29;8.47;;;5.70;;
14776;SDS011;7480;43.124;25.686;2022-10-16T08:07:57;5.73;;;5.13;;
14776;SDS011;7480;43.124;25.686;2022-10-16T08:10:24;8.23;;;5.50;;
14776;SDS011;7480;43.124;25.686;2022-10-16T08:12:52;7.77;;;4.60;;
14776;SDS011;7480;43.124;25.686;2022-10-16T08:15:19;7.33;;;5.13;;
14776;SDS011;7480;43.124;25.686;2022-10-16T08:18:00;6.83;;;4.30;;
14776;SDS011;7480;43.124;25.686;2022-10-16T10:17:52;4.23;;;2.90;;
14776;SDS011;7480;43.124;25.686;2022-10-16T10:20:24;4.50;;;2.30;;
14776;SDS011;7480;43.124;25.686;2022-10-16T10:22:52;2.37;;;2.10;;
14776;SDS011;7480;43.124;25.686;2022-10-16T10:39:48;4.63;;;2.47;;
14776;SDS011;7480;43.124;25.686;2022-10-16T10:42:35;4.97;;;2.80;;
14776;SDS011;7480;43.124;25.686;2022-10-16T10:45:18;3.63;;;3.30;;
14776;SDS011;7480;43.124;25.686;2022-10-16T10:48:13;3.00;;;2.60;;
14776;SDS011;7480;43.124;25.686;2022-10-16T10:53:28;3.60;;;2.70;;
14776;SDS011;7480;43.124;25.686;2022-10-16T11:06:40;4.10;;;2.63;;
14776;SDS011;7480;43.124;25.686;2022-10-16T11:09:15;2.70;;;2.43;;
14776;SDS011;7480;43.124;25.686;2022-10-16T11:14:17;3.70;;;2.93;;
14776;SDS011;7480;43.124;25.686;2022-10-16T11:19:35;2.90;;;2.37;;
14776;SDS011;7480;43.124;25.686;2022-10-16T11:22:17;3.10;;;2.80;;
14776;SDS011;7480;43.124;25.686;2022-10-16T11:27:21;2.50;;;2.13;;
14776;SDS011;7480;43.124;25.686;2022-10-16T11:29:57;5.90;;;2.87;;
14776;SDS011;7480;43.124;25.686;2022-10-16T11:32:28;3.07;;;2.80;;
14776;SDS011;7480;43.124;25.686;2022-10-16T11:35:04;2.30;;;2.10;;
14776;SDS011;7480;43.124;25.686;2022-10-16T11:37:51;4.07;;;2.67;;
14776;SDS011;7480;43.124;25.686;2022-10-16T11:40:22;2.70;;;2.43;;
14776;SDS011;7480;43.124;25.686;2022-10-16T11:42:54;3.43;;;2.23;;
14776;SDS011;7480;43.124;25.686;2022-10-16T11:45:33;4.87;;;2.63;;
14776;SDS011;7480;43.124;25.686;2022-10-16T11:48:18;4.40;;;2.50;;
14776;SDS011;7480;43.124;25.686;2022-10-16T11:50:53;2.90;;;2.47;;
14776;SDS011;7480;43.124;25.686;2022-10-16T11:53:34;8.17;;;2.43;;
14776;SDS011;7480;43.124;25.686;2022-10-16T11:56:11;4.60;;;2.40;;
14776;SDS011;7480;43.124;25.686;2022-10-16T12:01:38;3.57;;;2.63;;
14776;SDS011;7480;43.124;25.686;2022-10-16T12:04:16;3.20;;;2.40;;
14776;SDS011;7480;43.124;25.686;2022-10-16T12:09:27;2.83;;;2.53;;
14776;SDS011;7480;43.124;25.686;2022-10-16T12:11:55;4.47;;;2.80;;
14776;SDS011;7480;43.124;25.686;2022-10-16T12:14:38;5.17;;;2.70;;
14776;SDS011;7480;43.124;25.686;2022-10-16T12:17:27;2.50;;;2.03;;
14776;SDS011;7480;43.124;25.686;2022-10-16T12:22:41;3.77;;;2.70;;
14776;SDS011;7480;43.124;25.686;2022-10-16T12:27:58;4.50;;;3.07;;
14776;SDS011;7480;43.124;25.686;2022-10-16T12:30:31;3.90;;;2.60;;
14776;SDS011;7480;43.124;25.686;2022-10-16T12:33:05;3.20;;;2.27;;
14776;SDS011;7480;43.124;25.686;2022-10-16T12:35:34;2.50;;;2.30;;
14776;SDS011;7480;43.124;25.686;2022-10-16T12:38:28;3.77;;;2.63;;
14776;SDS011;7480;43.124;25.686;2022-10-16T12:41:11;2.87;;;1.97;;
14776;SDS011;7480;43.124;25.686;2022-10-16T12:48:38;2.87;;;2.40;;
14776;SDS011;7480;43.124;25.686;2022-10-16T12:51:23;2.97;;;2.40;;
14776;SDS011;7480;43.124;25.686;2022-10-16T12:59:25;3.65;;;1.98;;
14776;SDS011;7480;43.124;25.686;2022-10-16T13:05:12;4.33;;;2.20;;
14776;SDS011;7480;43.124;25.686;2022-10-16T13:10:51;3.55;;;2.60;;
14776;SDS011;7480;43.124;25.686;2022-10-16T13:29:40;2.37;;;1.90;;
14776;SDS011;7480;43.124;25.686;2022-10-16T13:32:09;3.77;;;2.40;;
14776;SDS011;7480;43.124;25.686;2022-10-16T13:34:45;2.50;;;2.30;;
14776;SDS011;7480;43.124;25.686;2022-10-16T13:37:16;3.73;;;2.40;;
14776;SDS011;7480;43.124;25.686;2022-10-16T13:39:44;3.70;;;2.20;;
14776;SDS011;7480;43.124;25.686;2022-10-16T13:42:12;4.13;;;2.70;;
14776;SDS011;7480;43.124;25.686;2022-10-16T13:44:54;2.73;;;2.07;;
14776;SDS011;7480;43.124;25.686;2022-10-16T13:47:25;3.67;;;2.00;;
14776;SDS011;7480;43.124;25.686;2022-10-16T13:52:31;3.73;;;2.10;;
14776;SDS011;7480;43.124;25.686;2022-10-16T13:54:58;2.50;;;2.30;;
14776;SDS011;7480;43.124;25.686;2022-10-16T13:57:27;2.63;;;2.07;;
14776;SDS011;7480;43.124;25.686;2022-10-16T13:59:54;3.20;;;2.20;;
14776;SDS011;7480;43.124;25.686;2022-10-16T14:02:33;3.63;;;2.53;;
14776;SDS011;7480;43.124;25.686;2022-10-16T14:05:02;6.13;;;2.80;;
14776;SDS011;7480;43.124;25.686;2022-10-16T14:47:22;6.07;;;4.97;;
14776;SDS011;7480;43.124;25.686;2022-10-16T14:49:53;3.93;;;2.77;;
14776;SDS011;7480;43.124;25.686;2022-10-16T14:52:22;3.63;;;2.97;;
14776;SDS011;7480;43.124;25.686;2022-10-16T14:54:48;4.53;;;3.83;;
14776;SDS011;7480;43.124;25.686;2022-10-16T14:57:16;4.27;;;3.60;;
14776;SDS011;7480;43.124;25.686;2022-10-16T14:59:44;4.67;;;3.50;;
14776;SDS011;7480;43.124;25.686;2022-10-16T15:02:25;4.40;;;3.50;;
14776;SDS011;7480;43.124;25.686;2022-10-16T15:04:54;6.33;;;4.07;;
14776;SDS011;7480;43.124;25.686;2022-10-16T15:07:22;3.77;;;3.47;;
14776;SDS011;7480;43.124;25.686;2022-10-16T15:09:49;4.33;;;3.50;;
14776;SDS011;7480;43.124;25.686;2022-10-16T15:12:16;4.67;;;3.43;;
14776;SDS011;7480;43.124;25.686;2022-10-16T15:14:43;6.10;;;3.80;;
14776;SDS011;7480;43.124;25.686;2022-10-16T15:17:10;3.97;;;3.40;;
14776;SDS011;7480;43.124;25.686;2022-10-16T15:19:37;5.07;;;3.70;;
14776;SDS011;7480;43.124;25.686;2022-10-16T16:35:50;25.57;;;13.57;;
14776;SDS011;7480;43.124;25.686;2022-10-16T16:38:17;8.90;;;5.57;;
14776;SDS011;7480;43.124;25.686;2022-10-16T16:40:43;8.43;;;6.30;;
14776;SDS011;7480;43.124;25.686;2022-10-16T16:43:10;8.77;;;5.13;;
14776;SDS011;7480;43.124;25.686;2022-10-16T16:45:36;4.63;;;3.00;;
14776;SDS011;7480;43.124;25.686;2022-10-16T16:48:03;10.10;;;7.18;;
14776;SDS011;7480;43.124;25.686;2022-10-16T16:50:34;6.47;;;5.43;;
14776;SDS011;7480;43.124;25.686;2022-10-16T16:53:02;5.50;;;4.40;;
14776;SDS011;7480;43.124;25.686;2022-10-16T16:55:29;6.07;;;4.77;;
14776;SDS011;7480;43.124;25.686;2022-10-16T16:57:56;4.70;;;3.53;;
14776;SDS011;7480;43.124;25.686;2022-10-16T17:00:25;4.67;;;3.63;;
14776;SDS011;7480;43.124;25.686;2022-10-16T17:02:52;6.57;;;3.60;;
14776;SDS011;7480;43.124;25.686;2022-10-16T17:05:18;7.83;;;4.77;;
14776;SDS011;7480;43.124;25.686;2022-10-16T17:07:45;6.17;;;4.17;;
14776;SDS011;7480;43.124;25.686;2022-10-16T17:10:11;9.52;;;4.63;;
14776;SDS011;7480;43.124;25.686;2022-10-16T17:12:38;7.37;;;4.70;;
14776;SDS011;7480;43.124;25.686;2022-10-16T17:15:05;7.00;;;4.55;;
14776;SDS011;7480;43.124;25.686;2022-10-16T17:27:19;11.97;;;4.63;;
14776;SDS011;7480;43.124;25.686;2022-10-16T17:29:49;9.17;;;6.63;;
14776;SDS011;7480;43.124;25.686;2022-10-16T17:32:17;11.37;;;6.70;;
14776;SDS011;7480;43.124;25.686;2022-10-16T17:34:45;7.00;;;5.03;;
14776;SDS011;7480;43.124;25.686;2022-10-16T17:37:12;12.30;;;8.03;;
14776;SDS011;7480;43.124;25.686;2022-10-16T17:39:43;7.97;;;5.23;;
14776;SDS011;7480;43.124;25.686;2022-10-16T17:42:10;8.70;;;6.37;;
14776;SDS011;7480;43.124;25.686;2022-10-16T17:44:36;11.63;;;5.97;;
14776;SDS011;7480;43.124;25.686;2022-10-16T17:47:03;9.23;;;5.67;;
14776;SDS011;7480;43.124;25.686;2022-10-16T17:49:29;8.40;;;5.43;;
14776;SDS011;7480;43.124;25.686;2022-10-16T17:51:56;7.60;;;5.50;;
14776;SDS011;7480;43.124;25.686;2022-10-16T17:54:24;6.73;;;4.53;;
14776;SDS011;7480;43.124;25.686;2022-10-16T17:56:51;11.20;;;6.73;;
14776;SDS011;7480;43.124;25.686;2022-10-16T17:59:17;7.80;;;3.83;;
14776;SDS011;7480;43.124;25.686;2022-10-16T18:01:48;6.30;;;5.70;;
14776;SDS011;7480;43.124;25.686;2022-10-16T18:04:15;7.10;;;4.00;;
14776;SDS011;7480;43.124;25.686;2022-10-16T18:06:42;18.40;;;6.37;;
14776;SDS011;7480;43.124;25.686;2022-10-16T18:09:10;10.60;;;5.70;;
14776;SDS011;7480;43.124;25.686;2022-10-16T18:11:40;8.70;;;4.63;;
14776;SDS011;7480;43.124;25.686;2022-10-16T18:14:06;9.57;;;6.33;;
14776;SDS011;7480;43.124;25.686;2022-10-16T18:16:33;8.10;;;4.87;;
14776;SDS011;7480;43.124;25.686;2022-10-16T18:19:02;10.60;;;6.17;;
14776;SDS011;7480;43.124;25.686;2022-10-16T18:21:29;8.47;;;5.50;;
14776;SDS011;7480;43.124;25.686;2022-10-16T18:23:59;12.47;;;6.47;;
14776;SDS011;7480;43.124;25.686;2022-10-16T18:26:26;9.03;;;5.37;;
14776;SDS011;7480;43.124;25.686;2022-10-16T18:28:54;4.90;;;3.67;;
14776;SDS011;7480;43.124;25.686;2022-10-16T18:31:22;7.67;;;3.53;;
14776;SDS011;7480;43.124;25.686;2022-10-16T18:33:51;8.20;;;4.23;;
14776;SDS011;7480;43.124;25.686;2022-10-16T18:36:19;6.73;;;5.17;;
14776;SDS011;7480;43.124;25.686;2022-10-16T18:38:50;8.73;;;5.10;;
14776;SDS011;7480;43.124;25.686;2022-10-16T18:41:17;5.90;;;4.77;;
14776;SDS011;7480;43.124;25.686;2022-10-16T18:43:44;7.27;;;4.60;;
14776;SDS011;7480;43.124;25.686;2022-10-16T21:35:50;8.30;;;5.20;;
14776;SDS011;7480;43.124;25.686;2022-10-16T21:38:16;28.23;;;12.77;;
14776;SDS011;7480;43.124;25.686;2022-10-16T21:40:43;57.83;;;27.90;;
14776;SDS011;7480;43.124;25.686;2022-10-16T21:43:10;12.57;;;6.67;;
14776;SDS011;7480;43.124;25.686;2022-10-16T21:45:37;6.90;;;4.30;;
14776;SDS011;7480;43.124;25.686;2022-10-16T21:48:03;13.50;;;8.20;;
14776;SDS011;7480;43.124;25.686;2022-10-16T21:50:30;15.47;;;9.63;;
14776;SDS011;7480;43.124;25.686;2022-10-16T21:52:57;27.87;;;15.97;;
14776;SDS011;7480;43.124;25.686;2022-10-16T21:55:23;27.27;;;13.27;;
14776;SDS011;7480;43.124;25.686;2022-10-16T21:57:50;19.97;;;10.47;;
14776;SDS011;7480;43.124;25.686;2022-10-16T22:00:17;11.33;;;5.30;;
14776;SDS011;7480;43.124;25.686;2022-10-16T22:02:43;5.13;;;2.77;;
14776;SDS011;7480;43.124;25.686;2022-10-16T22:05:10;4.50;;;3.47;;
14776;SDS011;7480;43.124;25.686;2022-10-16T22:07:36;3.90;;;2.67;;
14776;SDS011;7480;43.124;25.686;2022-10-16T22:10:03;4.47;;;3.00;;
14776;SDS011;7480;43.124;25.686;2022-10-16T22:12:30;2.43;;;2.17;;
14776;SDS011;7480;43.124;25.686;2022-10-16T22:14:57;6.40;;;2.50;;
14776;SDS011;7480;43.124;25.686;2022-10-16T22:17:23;2.40;;;2.17;;
14776;SDS011;7480;43.124;25.686;2022-10-16T22:19:50;5.43;;;3.10;;
14776;SDS011;7480;43.124;25.686;2022-10-16T22:22:17;3.47;;;2.47;;
14776;SDS011;7480;43.124;25.686;2022-10-16T22:24:43;2.47;;;2.27;;
14776;SDS011;7480;43.124;25.686;2022-10-16T22:27:10;2.47;;;2.00;;
14776;SDS011;7480;43.124;25.686;2022-10-16T22:29:37;5.63;;;2.67;;
14776;SDS011;7480;43.124;25.686;2022-10-16T22:32:03;3.27;;;2.07;;
14776;SDS011;7480;43.124;25.686;2022-10-16T22:34:30;4.07;;;2.80;;
14776;SDS011;7480;43.124;25.686;2022-10-16T22:36:57;4.10;;;2.30;;
14776;SDS011;7480;43.124;25.686;2022-10-16T22:39:23;4.93;;;2.80;;
14776;SDS011;7480;43.124;25.686;2022-10-16T22:41:50;4.67;;;3.37;;
14776;SDS011;7480;43.124;25.686;2022-10-16T22:44:16;4.07;;;3.63;;
14776;SDS011;7480;43.124;25.686;2022-10-16T22:46:43;3.23;;;2.57;;
14776;SDS011;7480;43.124;25.686;2022-10-16T22:49:09;4.60;;;3.70;;
14776;SDS011;7480;43.124;25.686;2022-10-16T22:51:36;2.87;;;2.63;;
14776;SDS011;7480;43.124;25.686;2022-10-16T22:54:03;6.13;;;3.40;;
14776;SDS011;7480;43.124;25.686;2022-10-16T22:56:29;3.60;;;2.90;;
14776;SDS011;7480;43.124;25.686;2022-10-16T22:58:56;4.77;;;3.20;;
14776;SDS011;7480;43.124;25.686;2022-10-16T23:01:24;4.53;;;3.13;;
14776;SDS011;7480;43.124;25.686;2022-10-16T23:03:53;6.87;;;2.40;;
14776;SDS011;7480;43.124;25.686;2022-10-16T23:06:20;3.23;;;2.30;;
14776;SDS011;7480;43.124;25.686;2022-10-16T23:08:50;3.80;;;2.13;;
14776;SDS011;7480;43.124;25.686;2022-10-16T23:11:18;3.67;;;2.13;;
14776;SDS011;7480;43.124;25.686;2022-10-16T23:13:44;3.33;;;2.40;;
14776;SDS011;7480;43.124;25.686;2022-10-16T23:16:12;3.20;;;2.47;;
14776;SDS011;7480;43.124;25.686;2022-10-16T23:18:41;2.43;;;2.07;;
14776;SDS011;7480;43.124;25.686;2022-10-16T23:21:09;4.17;;;2.90;;
14776;SDS011;7480;43.124;25.686;2022-10-16T23:23:38;3.70;;;2.80;;
14776;SDS011;7480;43.124;25.686;2022-10-16T23:26:09;3.13;;;2.50;;
14776;SDS011;7480;43.124;25.686;2022-10-16T23:28:43;5.20;;;3.10;;
14776;SDS011;7480;43.124;25.686;2022-10-16T23:31:10;3.87;;;2.97;;
14776;SDS011;7480;43.124;25.686;2022-10-16T23:33:38;4.33;;;2.10;;
14776;SDS011;7480;43.124;25.686;2022-10-16T23:36:06;3.20;;;2.67;;
14776;SDS011;7480;43.124;25.686;2022-10-16T23:38:38;4.40;;;2.40;;
14776;SDS011;7480;43.124;25.686;2022-10-16T23:41:05;3.87;;;2.53;;
14776;SDS011;7480;43.124;25.686;2022-10-16T23:43:32;2.00;;;1.80;;
14776;SDS011;7480;43.124;25.686;2022-10-16T23:45:58;2.77;;;2.20;;
14776;SDS011;7480;43.124;25.686;2022-10-16T23:48:25;5.97;;;2.20;;
14776;SDS011;7480;43.124;25.686;2022-10-16T23:50:52;2.50;;;2.30;;
14776;SDS011;7480;43.124;25.686;2022-10-16T23:53:19;4.43;;;2.77;;
14776;SDS011;7480;43.124;25.686;2022-10-16T23:55:46;4.87;;;3.50;;
14776;SDS011;7480;43.124;25.686;2022-10-16T23:58:12;5.40;;;3.30;;
